createdAt,value
2022-07-26T00:00:14.237Z,8.68
2022-07-26T00:02:47.201Z,6.53
2022-07-26T00:05:16.270Z,11.07
2022-07-26T00:07:43.508Z,10.27
2022-07-26T00:10:10.632Z,8.55
2022-07-26T00:12:37.784Z,5.47
2022-07-26T00:15:07.032Z,7.15
2022-07-26T00:17:33.733Z,6.40
2022-07-26T00:20:00.428Z,8.95
2022-07-26T00:22:36.525Z,9.68
2022-07-26T00:25:08.878Z,8.23
2022-07-26T00:27:38.808Z,8.50
2022-07-26T00:30:09.879Z,9.43
2022-07-26T00:32:37.854Z,6.50
2022-07-26T00:35:06.291Z,8.50
2022-07-26T00:37:33.259Z,8.48
2022-07-26T00:39:59.945Z,6.78
2022-07-26T00:42:27.094Z,7.88
2022-07-26T00:44:53.881Z,8.20
2022-07-26T00:47:20.706Z,12.10
2022-07-26T00:49:47.534Z,9.20
2022-07-26T00:52:14.385Z,6.63
2022-07-26T00:54:46.532Z,9.57
2022-07-26T00:57:14.955Z,8.82
2022-07-26T00:59:42.838Z,9.10
2022-07-26T01:02:10.464Z,8.98
2022-07-26T01:04:37.453Z,7.65
2022-07-26T01:07:15.115Z,10.25
2022-07-26T01:09:43.185Z,7.68
2022-07-26T01:12:10.260Z,8.75
2022-07-26T01:14:37.194Z,7.55
2022-07-26T01:17:04.250Z,10.00
2022-07-26T01:19:30.983Z,6.55
2022-07-26T01:21:57.741Z,9.45
2022-07-26T01:24:24.469Z,9.27
2022-07-26T01:26:51.386Z,7.50
2022-07-26T01:29:18.170Z,7.55
2022-07-26T01:31:44.946Z,9.75
2022-07-26T01:34:12.046Z,9.15
2022-07-26T01:36:39.709Z,9.68
2022-07-26T01:39:06.741Z,7.75
2022-07-26T01:41:37.886Z,8.27
2022-07-26T01:44:06.068Z,9.15
2022-07-26T01:46:33.608Z,7.57
2022-07-26T01:49:01.803Z,7.97
2022-07-26T01:51:28.752Z,10.00
2022-07-26T01:53:55.535Z,7.05
2022-07-26T01:56:22.267Z,7.88
2022-07-26T01:58:49.586Z,9.23
2022-07-26T02:01:16.383Z,8.45
2022-07-26T02:04:03.082Z,6.22
2022-07-26T02:06:29.821Z,6.32
2022-07-26T02:08:56.506Z,7.18
2022-07-26T02:11:23.389Z,6.20
2022-07-26T02:13:53.181Z,8.00
2022-07-26T02:16:20.285Z,7.82
2022-07-26T02:18:47.210Z,6.43
2022-07-26T02:21:13.936Z,7.93
2022-07-26T02:23:41.623Z,8.07
2022-07-26T02:26:08.743Z,7.85
2022-07-26T02:28:35.598Z,6.32
2022-07-26T02:31:02.491Z,9.95
2022-07-26T02:33:29.358Z,5.57
2022-07-26T02:35:56.045Z,7.47
2022-07-26T02:38:22.811Z,7.40
2022-07-26T02:40:52.770Z,10.95
2022-07-26T02:43:20.052Z,6.13
2022-07-26T02:46:01.592Z,8.52
2022-07-26T02:48:32.395Z,7.53
2022-07-26T02:50:59.408Z,7.32
2022-07-26T02:53:26.098Z,5.60
2022-07-26T02:55:52.800Z,5.72
2022-07-26T02:58:21.533Z,7.53
2022-07-26T03:00:48.493Z,8.68
2022-07-26T03:03:15.313Z,6.88
2022-07-26T03:05:42.279Z,7.15
2022-07-26T03:08:09.165Z,9.75
2022-07-26T03:10:36.080Z,9.73
2022-07-26T03:13:02.976Z,6.30
2022-07-26T03:15:29.832Z,8.02
2022-07-26T03:17:56.634Z,10.85
2022-07-26T03:20:24.073Z,7.07
2022-07-26T03:22:50.796Z,9.40
2022-07-26T03:25:17.591Z,9.32
2022-07-26T03:27:44.350Z,5.25
2022-07-26T03:30:11.991Z,4.88
2022-07-26T03:32:39.506Z,5.40
2022-07-26T03:35:07.414Z,7.90
2022-07-26T03:37:45.106Z,7.20
2022-07-26T03:40:17.742Z,4.82
2022-07-26T03:42:46.010Z,4.43
2022-07-26T03:45:13.951Z,4.43
2022-07-26T03:47:40.756Z,5.47
2022-07-26T03:50:08.680Z,5.63
2022-07-26T03:52:35.384Z,3.97
2022-07-26T03:55:22.159Z,3.45
2022-07-26T03:57:49.201Z,3.63
2022-07-26T04:00:15.992Z,4.50
2022-07-26T04:02:42.907Z,3.45
2022-07-26T04:05:10.271Z,5.40
2022-07-26T04:07:52.840Z,4.03
2022-07-26T04:10:21.446Z,3.92
2022-07-26T04:12:48.472Z,5.10
2022-07-26T04:15:16.965Z,3.20
2022-07-26T04:17:43.978Z,3.83
2022-07-26T04:20:12.662Z,5.70
2022-07-26T04:22:42.010Z,3.25
2022-07-26T04:25:09.652Z,3.30
2022-07-26T04:27:37.215Z,4.45
2022-07-26T04:30:06.669Z,3.40
2022-07-26T04:32:35.227Z,4.68
2022-07-26T04:35:01.978Z,3.92
2022-07-26T04:37:28.853Z,4.30
2022-07-26T04:39:55.527Z,4.35
2022-07-26T04:42:22.208Z,7.07
2022-07-26T04:44:48.901Z,3.67
2022-07-26T04:47:15.645Z,4.10
2022-07-26T04:49:42.369Z,4.80
2022-07-26T04:52:09.116Z,4.57
2022-07-26T04:54:35.834Z,5.55
2022-07-26T04:57:02.594Z,4.10
2022-07-26T04:59:29.305Z,4.55
2022-07-26T05:01:59.752Z,4.20
2022-07-26T05:04:26.806Z,3.67
2022-07-26T05:06:53.710Z,4.28
2022-07-26T05:09:20.409Z,5.53
2022-07-26T05:11:47.171Z,4.57
2022-07-26T05:14:13.861Z,4.82
2022-07-26T05:16:44.438Z,4.05
2022-07-26T05:19:12.255Z,3.85
2022-07-26T05:21:38.979Z,6.22
2022-07-26T05:24:07.957Z,4.85
2022-07-26T05:26:35.106Z,6.00
2022-07-26T05:29:02.150Z,4.13
2022-07-26T05:31:28.943Z,4.80
2022-07-26T05:33:55.731Z,10.70
2022-07-26T05:36:22.506Z,9.13
2022-07-26T05:38:49.220Z,4.50
2022-07-26T05:41:16.538Z,5.57
2022-07-26T05:43:43.290Z,6.07
2022-07-26T05:46:11.516Z,6.35
2022-07-26T05:48:39.576Z,4.60
2022-07-26T05:51:06.422Z,5.80
2022-07-26T05:53:33.306Z,4.53
2022-07-26T05:55:59.989Z,6.57
2022-07-26T05:58:26.731Z,9.85
2022-07-26T06:00:53.723Z,5.72
2022-07-26T06:03:23.216Z,6.28
2022-07-26T06:05:52.659Z,4.53
2022-07-26T06:08:20.578Z,4.55
2022-07-26T06:10:51.687Z,5.82
2022-07-26T06:13:18.870Z,6.50
2022-07-26T06:15:46.342Z,4.93
2022-07-26T06:18:13.466Z,4.18
2022-07-26T06:20:42.250Z,5.68
2022-07-26T06:23:09.182Z,3.70
2022-07-26T06:25:36.096Z,3.47
2022-07-26T06:28:04.189Z,4.03
2022-07-26T06:30:30.922Z,4.00
2022-07-26T06:32:58.132Z,4.28
2022-07-26T06:35:24.885Z,5.40
2022-07-26T06:37:51.639Z,3.33
2022-07-26T06:40:18.344Z,4.97
2022-07-26T06:42:45.035Z,3.05
2022-07-26T06:45:12.091Z,3.90
2022-07-26T06:47:38.810Z,1.92
2022-07-26T06:50:06.410Z,2.58
2022-07-26T06:52:33.319Z,1.30
2022-07-26T06:55:00.587Z,1.77
2022-07-26T06:57:27.706Z,2.08
2022-07-26T06:59:54.453Z,1.95
2022-07-26T07:02:21.402Z,1.83
2022-07-26T07:04:48.251Z,1.15
2022-07-26T07:07:14.989Z,1.05
2022-07-26T07:09:41.731Z,1.95
2022-07-26T07:12:10.412Z,0.95
2022-07-26T07:14:38.416Z,1.50
2022-07-26T07:17:12.964Z,0.68
2022-07-26T07:19:41.098Z,0.75
2022-07-26T07:22:11.738Z,0.77
2022-07-26T07:24:39.177Z,1.77
2022-07-26T07:27:06.283Z,0.95
2022-07-26T07:29:33.838Z,1.30
2022-07-26T07:32:00.814Z,0.88
2022-07-26T07:34:30.449Z,3.20
2022-07-26T07:36:57.692Z,1.25
2022-07-26T07:39:34.461Z,2.00
2022-07-26T07:42:05.464Z,1.30
2022-07-26T07:44:32.201Z,1.10
2022-07-26T07:46:58.968Z,2.75
2022-07-26T07:49:25.829Z,2.83
2022-07-26T07:51:52.594Z,2.28
2022-07-26T07:54:19.335Z,1.30
2022-07-26T07:56:49.172Z,2.05
2022-07-26T07:59:15.907Z,1.73
2022-07-26T08:01:42.684Z,1.55
2022-07-26T08:04:11.863Z,4.63
2022-07-26T08:06:40.767Z,1.60
2022-07-26T08:09:09.041Z,4.35
2022-07-26T08:11:36.285Z,2.17
2022-07-26T08:14:03.411Z,1.90
2022-07-26T08:16:31.020Z,3.38
2022-07-26T08:18:59.030Z,1.67
2022-07-26T08:21:28.086Z,1.70
2022-07-26T08:23:55.985Z,1.42
2022-07-26T08:26:22.707Z,1.38
2022-07-26T08:28:58.603Z,1.73
2022-07-26T08:31:28.237Z,1.95
2022-07-26T08:33:55.481Z,1.85
2022-07-26T08:36:22.500Z,1.85
2022-07-26T08:38:49.558Z,2.35
2022-07-26T08:41:17.947Z,4.70
2022-07-26T08:43:52.654Z,2.47
2022-07-26T08:46:26.835Z,2.67
2022-07-26T08:48:55.400Z,1.42
2022-07-26T08:51:24.463Z,3.15
2022-07-26T08:53:58.023Z,2.40
2022-07-26T08:56:30.995Z,1.48
2022-07-26T08:58:57.797Z,2.08
2022-07-26T09:01:24.605Z,3.35
2022-07-26T09:03:51.479Z,1.98
2022-07-26T09:06:20.968Z,2.08
2022-07-26T09:08:52.472Z,2.38
2022-07-26T09:11:26.224Z,1.42
2022-07-26T09:13:56.053Z,2.08
2022-07-26T09:16:22.833Z,2.35
2022-07-26T09:18:49.630Z,2.50
2022-07-26T09:21:36.005Z,1.83
2022-07-26T09:24:03.171Z,3.25
2022-07-26T09:26:30.028Z,2.70
2022-07-26T09:29:12.146Z,2.05
2022-07-26T09:31:40.166Z,1.70
2022-07-26T09:34:08.085Z,2.38
2022-07-26T09:36:50.571Z,2.42
2022-07-26T09:39:17.322Z,3.33
2022-07-26T09:42:04.823Z,4.10
2022-07-26T09:44:47.754Z,4.38
2022-07-26T09:47:15.177Z,3.05
2022-07-26T09:49:43.168Z,3.20
2022-07-26T09:52:20.768Z,6.82
2022-07-26T09:54:49.393Z,3.92
2022-07-26T09:57:18.736Z,4.97
2022-07-26T09:59:46.786Z,3.97
2022-07-26T10:02:14.402Z,4.30
2022-07-26T10:04:42.170Z,4.40
2022-07-26T10:07:10.496Z,4.65
2022-07-26T10:09:48.874Z,5.20
2022-07-26T10:12:17.577Z,4.93
2022-07-26T10:14:47.151Z,8.00
2022-07-26T10:17:31.677Z,4.18
2022-07-26T10:20:15.148Z,3.90
2022-07-26T10:25:34.775Z,5.50
2022-07-26T10:28:01.762Z,5.35
2022-07-26T10:30:38.463Z,3.45
2022-07-26T10:33:12.663Z,5.93
2022-07-26T10:35:41.980Z,5.45
2022-07-26T10:38:14.945Z,5.50
2022-07-26T10:40:59.835Z,5.00
2022-07-26T10:43:43.489Z,3.30
2022-07-26T10:46:24.941Z,3.60
2022-07-26T10:49:06.458Z,7.20
2022-07-26T10:51:36.494Z,4.18
2022-07-26T10:54:06.567Z,5.82
2022-07-26T10:56:34.285Z,4.95
2022-07-26T10:59:02.547Z,9.45
2022-07-26T11:01:40.762Z,5.30
2022-07-26T11:04:18.800Z,5.40
2022-07-26T11:06:45.781Z,5.15
2022-07-26T11:09:12.987Z,4.15
2022-07-26T11:11:40.127Z,5.18
2022-07-26T11:14:16.001Z,5.03
2022-07-26T11:16:47.491Z,3.60
2022-07-26T11:19:22.337Z,3.70
2022-07-26T11:21:58.919Z,6.22
2022-07-26T11:24:26.870Z,4.60
2022-07-26T11:26:54.026Z,5.45
2022-07-26T11:29:38.666Z,4.00
2022-07-26T11:32:20.391Z,6.90
2022-07-26T11:34:59.073Z,6.20
2022-07-26T11:37:25.924Z,6.30
2022-07-26T11:39:52.713Z,5.80
2022-07-26T11:42:21.519Z,7.07
2022-07-26T11:44:49.646Z,6.20
2022-07-26T11:47:20.024Z,4.55
2022-07-26T11:50:00.015Z,4.97
2022-07-26T11:52:35.049Z,5.07
2022-07-26T11:55:01.788Z,5.63
2022-07-26T11:57:30.648Z,5.68
2022-07-26T11:59:59.542Z,4.10
2022-07-26T12:02:27.939Z,4.75
2022-07-26T12:05:15.386Z,6.35
2022-07-26T12:08:00.704Z,6.10
2022-07-26T12:10:28.209Z,6.00
2022-07-26T12:13:27.445Z,7.97
2022-07-26T12:16:06.764Z,3.80
2022-07-26T12:18:35.309Z,3.13
2022-07-26T12:21:09.669Z,4.90
2022-07-26T12:23:45.006Z,4.50
2022-07-26T12:26:28.969Z,4.25
2022-07-26T12:28:57.043Z,3.33
2022-07-26T12:31:30.011Z,3.58
2022-07-26T12:33:57.354Z,3.20
2022-07-26T12:36:27.875Z,3.22
2022-07-26T12:38:58.466Z,2.80
2022-07-26T12:41:39.358Z,5.13
2022-07-26T12:44:08.523Z,3.30
2022-07-26T12:46:36.351Z,4.25
2022-07-26T12:49:03.958Z,4.93
2022-07-26T12:51:30.785Z,4.40
2022-07-26T12:53:57.686Z,5.53
2022-07-26T12:56:24.392Z,4.78
2022-07-26T12:58:51.179Z,7.35
2022-07-26T13:01:17.976Z,5.07
2022-07-26T13:03:44.747Z,3.70
2022-07-26T13:06:12.620Z,4.82
2022-07-26T13:08:40.335Z,4.00
2022-07-26T13:11:07.155Z,3.33
2022-07-26T13:13:33.886Z,3.65
2022-07-26T13:16:00.608Z,3.50
2022-07-26T13:18:27.333Z,2.67
2022-07-26T13:20:54.058Z,12.98
2022-07-26T13:23:21.818Z,3.28
2022-07-26T13:25:49.786Z,5.85
2022-07-26T13:28:17.575Z,3.55
2022-07-26T13:30:45.083Z,8.00
2022-07-26T13:33:13.144Z,6.18
2022-07-26T13:35:42.494Z,2.90
2022-07-26T13:38:10.419Z,2.70
2022-07-26T13:40:37.464Z,2.38
2022-07-26T13:43:05.108Z,3.92
2022-07-26T13:45:31.876Z,3.17
2022-07-26T13:47:59.687Z,3.58
2022-07-26T13:50:29.916Z,3.80
2022-07-26T13:52:57.102Z,3.85
2022-07-26T13:55:24.368Z,2.20
2022-07-26T13:57:57.155Z,2.30
2022-07-26T14:00:29.393Z,3.92
2022-07-26T14:02:58.705Z,2.30
2022-07-26T14:05:27.107Z,2.33
2022-07-26T14:07:54.466Z,3.67
2022-07-26T14:10:22.242Z,2.70
2022-07-26T14:12:49.245Z,3.38
2022-07-26T14:15:21.659Z,2.85
2022-07-26T14:17:49.285Z,3.05
2022-07-26T14:20:18.840Z,3.33
2022-07-26T14:22:46.113Z,1.80
2022-07-26T14:25:13.078Z,1.75
2022-07-26T14:27:39.910Z,4.50
2022-07-26T14:30:07.078Z,2.97
2022-07-26T14:32:33.845Z,1.83
2022-07-26T14:35:00.640Z,3.05
2022-07-26T14:37:42.416Z,3.88
2022-07-26T14:40:16.064Z,4.45
2022-07-26T14:42:43.296Z,2.57
2022-07-26T14:45:11.189Z,5.72
2022-07-26T14:47:38.113Z,3.35
2022-07-26T14:50:07.718Z,3.67
2022-07-26T14:52:38.263Z,2.00
2022-07-26T14:55:06.115Z,1.98
2022-07-26T14:57:33.384Z,2.20
2022-07-26T15:00:06.654Z,2.80
2022-07-26T15:02:34.600Z,1.95
2022-07-26T15:05:01.888Z,2.00
2022-07-26T15:07:28.623Z,3.72
2022-07-26T15:09:55.389Z,3.13
2022-07-26T15:12:22.310Z,2.75
2022-07-26T15:14:49.019Z,1.92
2022-07-26T15:17:15.936Z,2.17
2022-07-26T15:19:42.685Z,1.83
2022-07-26T15:22:10.237Z,2.97
2022-07-26T15:24:39.952Z,2.47
2022-07-26T15:27:07.351Z,2.90
2022-07-26T15:29:35.813Z,2.08
2022-07-26T15:32:03.314Z,2.35
2022-07-26T15:34:30.196Z,1.73
2022-07-26T15:36:57.041Z,1.80
2022-07-26T15:39:23.806Z,3.33
2022-07-26T15:41:51.178Z,2.63
2022-07-26T15:44:19.564Z,1.83
2022-07-26T15:46:49.175Z,2.42
2022-07-26T15:49:17.436Z,2.13
2022-07-26T15:51:44.524Z,2.83
2022-07-26T15:54:13.695Z,2.72
2022-07-26T15:56:41.007Z,3.38
2022-07-26T15:59:08.330Z,1.83
2022-07-26T16:01:36.286Z,1.85
2022-07-26T16:04:05.042Z,2.33
2022-07-26T16:06:35.505Z,2.10
2022-07-26T16:09:16.652Z,2.38
2022-07-26T16:11:44.824Z,1.77
2022-07-26T16:14:11.535Z,1.63
2022-07-26T16:16:38.417Z,1.83
2022-07-26T16:19:05.191Z,1.95
2022-07-26T16:21:32.140Z,1.80
2022-07-26T16:24:03.010Z,2.22
2022-07-26T16:26:33.060Z,1.65
2022-07-26T16:29:00.628Z,1.85
2022-07-26T16:31:27.669Z,1.73
2022-07-26T16:33:54.477Z,2.20
2022-07-26T16:36:21.264Z,2.45
2022-07-26T16:38:48.013Z,2.53
2022-07-26T16:41:14.839Z,4.13
2022-07-26T16:43:41.745Z,2.65
2022-07-26T16:46:08.821Z,1.77
2022-07-26T16:48:35.663Z,2.70
2022-07-26T16:51:02.505Z,2.83
2022-07-26T16:53:29.305Z,3.22
2022-07-26T16:55:56.021Z,1.50
2022-07-26T16:58:22.870Z,1.90
2022-07-26T17:00:50.370Z,2.35
2022-07-26T17:03:17.400Z,4.88
2022-07-26T17:05:46.188Z,1.70
2022-07-26T17:08:13.114Z,4.43
2022-07-26T17:10:39.891Z,2.58
2022-07-26T17:13:06.682Z,3.78
2022-07-26T17:15:33.447Z,2.55
2022-07-26T17:18:00.378Z,2.47
2022-07-26T17:20:27.345Z,2.00
2022-07-26T17:22:54.557Z,1.95
2022-07-26T17:25:21.270Z,2.35
2022-07-26T17:27:48.074Z,2.30
2022-07-26T17:30:14.970Z,1.50
2022-07-26T17:32:41.933Z,2.42
2022-07-26T17:35:09.281Z,3.67
2022-07-26T17:37:36.393Z,2.80
2022-07-26T17:40:06.603Z,2.72
2022-07-26T17:42:35.530Z,2.00
2022-07-26T17:45:02.409Z,4.18
2022-07-26T17:47:30.529Z,2.20
2022-07-26T17:50:34.726Z,3.58
2022-07-26T17:52:50.020Z,3.40
2022-07-26T17:55:18.524Z,2.13
2022-07-26T17:57:45.910Z,2.20
2022-07-26T18:00:13.725Z,2.35
2022-07-26T18:02:40.724Z,2.92
2022-07-26T18:05:07.774Z,3.95
2022-07-26T18:07:34.565Z,3.38
2022-07-26T18:10:01.366Z,6.13
2022-07-26T18:12:30.497Z,3.58
2022-07-26T18:14:57.391Z,3.47
2022-07-26T18:17:24.553Z,2.10
2022-07-26T18:19:51.272Z,2.35
2022-07-26T18:22:18.025Z,2.22
2022-07-26T18:24:44.712Z,3.47
2022-07-26T18:27:11.584Z,3.47
2022-07-26T18:29:38.274Z,3.17
2022-07-26T18:32:05.326Z,4.18
2022-07-26T18:34:32.017Z,3.05
2022-07-26T18:36:58.769Z,2.55
2022-07-26T18:39:25.552Z,4.85
2022-07-26T18:41:59.506Z,2.55
2022-07-26T18:44:26.250Z,4.72
2022-07-26T18:46:53.023Z,1.83
2022-07-26T18:49:21.179Z,1.80
2022-07-26T18:51:48.938Z,2.00
2022-07-26T18:54:16.777Z,2.38
2022-07-26T18:56:43.777Z,2.80
2022-07-26T18:59:11.088Z,3.75
2022-07-26T19:01:38.051Z,5.30
2022-07-26T19:04:07.250Z,3.25
2022-07-26T19:06:34.950Z,3.20
2022-07-26T19:09:01.893Z,7.78
2022-07-26T19:11:30.195Z,4.82
2022-07-26T19:13:57.090Z,4.75
2022-07-26T19:16:26.424Z,4.43
2022-07-26T19:18:57.293Z,3.65
2022-07-26T19:21:24.493Z,3.42
2022-07-26T19:23:51.520Z,2.97
2022-07-26T19:26:18.348Z,3.40
2022-07-26T19:28:45.211Z,3.97
2022-07-26T19:31:12.145Z,2.22
2022-07-26T19:33:39.007Z,1.95
2022-07-26T19:36:05.918Z,3.28
2022-07-26T19:38:33.078Z,5.18
2022-07-26T19:41:00.573Z,1.90
2022-07-26T19:43:27.754Z,3.50
2022-07-26T19:45:54.926Z,6.00
2022-07-26T19:48:21.704Z,2.75
2022-07-26T19:50:48.736Z,4.47
2022-07-26T19:53:15.566Z,1.80
2022-07-26T19:55:42.467Z,2.03
2022-07-26T19:58:09.719Z,5.28
2022-07-26T20:00:36.458Z,4.05
2022-07-26T20:03:03.639Z,1.70
2022-07-26T20:05:30.878Z,5.07
2022-07-26T20:07:58.743Z,3.55
2022-07-26T20:10:31.534Z,2.67
2022-07-26T20:12:59.572Z,3.20
2022-07-26T20:15:26.396Z,4.03
2022-07-26T20:17:53.287Z,3.70
2022-07-26T20:20:20.240Z,4.53
2022-07-26T20:22:47.091Z,2.90
2022-07-26T20:25:18.089Z,6.63
2022-07-26T20:27:49.850Z,5.72
2022-07-26T20:30:17.263Z,2.13
2022-07-26T20:32:44.392Z,5.60
2022-07-26T20:35:11.315Z,2.33
2022-07-26T20:37:38.233Z,3.08
2022-07-26T20:40:07.152Z,6.32
2022-07-26T20:42:36.065Z,1.83
2022-07-26T20:45:02.950Z,6.50
2022-07-26T20:47:29.794Z,3.50
2022-07-26T20:50:02.685Z,1.73
2022-07-26T20:52:30.079Z,2.17
2022-07-26T20:54:56.837Z,4.72
2022-07-26T20:57:23.665Z,2.00
2022-07-26T20:59:50.447Z,3.63
2022-07-26T21:02:17.560Z,4.13
2022-07-26T21:04:45.598Z,4.25
2022-07-26T21:07:12.411Z,2.67
2022-07-26T21:09:39.118Z,6.95
2022-07-26T21:12:06.222Z,2.15
2022-07-26T21:14:32.956Z,1.48
2022-07-26T21:16:59.883Z,3.00
2022-07-26T21:19:26.784Z,1.80
2022-07-26T21:21:57.056Z,3.58
2022-07-26T21:24:23.859Z,1.25
2022-07-26T21:26:50.640Z,1.70
2022-07-26T21:29:17.440Z,1.27
2022-07-26T21:31:44.150Z,2.53
2022-07-26T21:34:11.535Z,2.45
2022-07-26T21:36:40.257Z,3.20
2022-07-26T21:39:08.471Z,1.83
2022-07-26T21:41:35.808Z,1.77
2022-07-26T21:44:04.209Z,1.50
2022-07-26T21:46:31.041Z,1.73
2022-07-26T21:48:57.900Z,1.55
2022-07-26T21:51:24.728Z,3.67
2022-07-26T21:53:51.453Z,1.83
2022-07-26T21:56:18.235Z,2.35
2022-07-26T21:58:44.995Z,2.42
2022-07-26T22:01:14.593Z,2.33
2022-07-26T22:03:42.490Z,1.98
2022-07-26T22:06:10.155Z,6.25
2022-07-26T22:08:37.467Z,5.10
2022-07-26T22:11:05.083Z,1.52
2022-07-26T22:13:32.125Z,3.28
2022-07-26T22:15:59.166Z,2.85
2022-07-26T22:18:26.451Z,1.95
2022-07-26T22:20:53.656Z,3.20
2022-07-26T22:23:23.037Z,5.07
2022-07-26T22:25:49.843Z,3.65
2022-07-26T22:28:17.913Z,1.75
2022-07-26T22:30:45.941Z,4.47
2022-07-26T22:33:12.919Z,2.08
2022-07-26T22:35:40.045Z,4.00
2022-07-26T22:38:11.000Z,2.38
2022-07-26T22:40:39.771Z,3.25
2022-07-26T22:43:07.064Z,2.90
2022-07-26T22:45:34.282Z,2.55
2022-07-26T22:48:02.739Z,1.45
2022-07-26T22:50:30.006Z,7.07
2022-07-26T22:52:57.056Z,2.97
2022-07-26T22:55:24.230Z,1.77
2022-07-26T22:57:51.046Z,1.70
2022-07-26T23:00:19.161Z,5.05
2022-07-26T23:02:47.304Z,3.30
2022-07-26T23:05:15.770Z,2.53
2022-07-26T23:07:44.810Z,2.13
2022-07-26T23:10:13.991Z,1.70
2022-07-26T23:12:40.736Z,2.47
2022-07-26T23:15:09.867Z,2.45
2022-07-26T23:17:37.638Z,3.15
2022-07-26T23:20:06.314Z,2.15
2022-07-26T23:22:33.480Z,2.35
2022-07-26T23:25:00.188Z,3.47
2022-07-26T23:27:26.951Z,2.88
2022-07-26T23:29:53.760Z,4.40
2022-07-26T23:32:20.563Z,2.97
2022-07-26T23:34:47.250Z,3.78
2022-07-26T23:37:13.995Z,3.70
2022-07-26T23:39:40.784Z,5.13
2022-07-26T23:42:07.641Z,3.63
2022-07-26T23:44:34.417Z,4.75
2022-07-26T23:47:01.457Z,2.88
2022-07-26T23:49:28.262Z,2.72
2022-07-26T23:51:55.085Z,1.38
2022-07-26T23:54:21.788Z,2.78
2022-07-26T23:56:48.606Z,1.52
2022-07-26T23:59:15.767Z,2.92
